createdAt,value
2022-08-28T00:00:46.063Z,18.70
2022-08-28T00:03:15.539Z,18.70
2022-08-28T00:05:46.137Z,18.80
2022-08-28T00:08:17.317Z,18.70
2022-08-28T00:10:45.982Z,18.70
2022-08-28T00:13:20.473Z,18.60
2022-08-28T00:15:49.981Z,18.60
2022-08-28T00:18:20.241Z,18.60
2022-08-28T00:20:49.534Z,18.60
2022-08-28T00:23:17.608Z,18.60
2022-08-28T00:25:45.621Z,18.70
2022-08-28T00:28:23.827Z,18.70
2022-08-28T00:30:56.469Z,18.90
2022-08-28T00:33:27.717Z,18.90
2022-08-28T00:35:56.196Z,18.90
2022-08-28T00:38:27.301Z,18.80
2022-08-28T00:41:00.073Z,18.80
2022-08-28T00:43:36.530Z,18.80
2022-08-28T00:46:09.165Z,18.80
2022-08-28T00:48:37.556Z,18.80
2022-08-28T00:51:26.508Z,18.70
2022-08-28T00:53:58.922Z,18.80
2022-08-28T00:56:28.841Z,18.80
2022-08-28T00:58:58.316Z,18.90
2022-08-28T01:01:28.409Z,18.90
2022-08-28T01:04:02.281Z,18.80
2022-08-28T01:06:30.329Z,18.80
2022-08-28T01:08:59.032Z,18.80
2022-08-28T01:11:30.181Z,18.70
2022-08-28T01:14:03.078Z,18.70
2022-08-28T01:16:34.473Z,18.80
2022-08-28T01:19:03.768Z,18.70
2022-08-28T01:21:40.263Z,18.80
2022-08-28T01:24:12.194Z,18.70
2022-08-28T01:26:40.263Z,18.60
2022-08-28T01:29:09.502Z,18.70
2022-08-28T01:31:39.423Z,18.70
2022-08-28T01:34:12.508Z,18.80
2022-08-28T01:36:41.462Z,18.60
2022-08-28T01:39:14.923Z,18.60
2022-08-28T01:41:45.767Z,18.70
2022-08-28T01:44:15.677Z,18.70
2022-08-28T01:46:47.526Z,18.90
2022-08-28T01:49:15.622Z,18.90
2022-08-28T01:51:44.012Z,18.70
2022-08-28T01:54:14.579Z,18.80
2022-08-28T01:56:46.252Z,18.80
2022-08-28T01:59:15.890Z,18.60
2022-08-28T02:01:44.088Z,18.50
2022-08-28T02:04:12.899Z,18.60
2022-08-28T02:06:41.211Z,18.50
2022-08-28T02:09:13.496Z,18.70
2022-08-28T02:11:47.432Z,18.80
2022-08-28T02:14:19.339Z,18.90
2022-08-28T02:16:47.523Z,18.90
2022-08-28T02:19:15.541Z,18.70
2022-08-28T02:21:43.561Z,18.50
2022-08-28T02:24:11.549Z,18.60
2022-08-28T02:26:39.945Z,18.60
2022-08-28T02:29:09.335Z,18.60
2022-08-28T02:31:37.357Z,18.50
2022-08-28T02:34:07.381Z,18.60
2022-08-28T02:36:35.344Z,18.60
2022-08-28T02:39:03.392Z,18.50
2022-08-28T02:41:31.357Z,18.50
2022-08-28T02:44:01.087Z,18.40
2022-08-28T02:46:30.603Z,18.40
2022-08-28T02:48:58.740Z,18.40
2022-08-28T02:51:27.334Z,18.40
2022-08-28T02:53:55.351Z,18.40
2022-08-28T02:56:23.495Z,18.50
2022-08-28T02:58:51.753Z,18.40
2022-08-28T03:01:22.337Z,18.40
2022-08-28T03:03:51.642Z,18.30
2022-08-28T03:06:19.718Z,18.30
2022-08-28T03:08:47.767Z,18.30
2022-08-28T05:22:18.769Z,17.60
2022-08-28T05:24:47.309Z,17.60
2022-08-28T05:27:15.405Z,17.60
2022-08-28T05:29:43.346Z,17.60
2022-08-28T05:32:11.316Z,17.70
2022-08-28T05:34:39.280Z,17.70
2022-08-28T05:37:08.839Z,17.70
2022-08-28T05:39:38.126Z,17.70
2022-08-28T05:42:06.628Z,17.80
2022-08-28T05:44:35.745Z,17.80
2022-08-28T05:47:03.826Z,17.90
2022-08-28T05:49:32.141Z,18.00
2022-08-28T05:52:00.072Z,18.00
2022-08-28T05:54:29.151Z,18.10
2022-08-28T05:56:58.594Z,18.10
2022-08-28T05:59:26.620Z,18.10
2022-08-28T06:01:54.633Z,18.10
2022-08-28T06:04:26.722Z,18.10
2022-08-28T06:06:54.971Z,18.20
2022-08-28T06:09:28.988Z,18.20
2022-08-28T06:12:00.893Z,18.30
2022-08-28T06:14:30.950Z,18.30
2022-08-28T06:16:59.961Z,18.30
2022-08-28T06:19:30.136Z,18.30
2022-08-28T06:22:01.037Z,18.30
2022-08-28T06:24:35.660Z,18.40
2022-08-28T06:27:05.275Z,18.50
2022-08-28T06:29:33.222Z,18.50
2022-08-28T06:32:04.354Z,18.50
2022-08-28T06:34:32.585Z,18.50
2022-08-28T06:37:00.660Z,18.50
2022-08-28T06:39:28.626Z,18.70
2022-08-28T06:41:56.665Z,18.70
2022-08-28T06:44:26.051Z,18.80
2022-08-28T06:46:55.694Z,18.80
2022-08-28T06:49:23.750Z,19.00
2022-08-28T06:51:51.720Z,19.00
2022-08-28T06:54:22.798Z,19.40
2022-08-28T06:56:51.642Z,19.50
2022-08-28T06:59:19.752Z,19.50
2022-08-28T07:01:49.282Z,19.80
2022-08-28T07:04:17.329Z,20.10
2022-08-28T07:06:50.357Z,19.90
2022-08-28T07:09:21.719Z,20.00
2022-08-28T07:11:49.687Z,19.90
2022-08-28T07:14:17.804Z,19.70
2022-08-28T07:16:45.983Z,19.70
2022-08-28T07:19:15.713Z,19.70
2022-08-28T07:21:46.465Z,19.70
2022-08-28T07:24:18.327Z,19.60
2022-08-28T07:26:48.549Z,19.80
2022-08-28T07:29:17.050Z,19.70
2022-08-28T07:31:46.841Z,19.80
2022-08-28T07:34:16.960Z,19.70
2022-08-28T07:36:45.396Z,19.80
2022-08-28T07:39:15.889Z,19.90
2022-08-28T07:41:44.885Z,20.00
2022-08-28T07:44:34.734Z,19.90
2022-08-28T07:47:06.353Z,20.10
2022-08-28T07:49:39.225Z,20.10
2022-08-28T07:52:08.686Z,20.10
2022-08-28T07:54:37.641Z,20.10
2022-08-28T07:57:06.197Z,20.10
2022-08-28T07:59:36.954Z,20.20
2022-08-28T08:02:05.976Z,20.30
2022-08-28T08:04:35.294Z,20.50
2022-08-28T08:07:07.908Z,20.60
2022-08-28T08:09:39.543Z,20.70
2022-08-28T08:12:10.323Z,20.90
2022-08-28T08:14:38.771Z,20.80
2022-08-28T08:17:09.801Z,21.00
2022-08-28T08:19:37.848Z,20.90
2022-08-28T08:22:07.400Z,21.10
2022-08-28T08:24:35.378Z,21.20
2022-08-28T08:27:03.615Z,21.10
2022-08-28T08:29:35.419Z,20.90
2022-08-28T08:32:07.134Z,21.10
2022-08-28T08:34:38.609Z,21.00
2022-08-28T08:37:08.567Z,21.00
2022-08-28T08:39:37.706Z,21.20
2022-08-28T08:42:10.326Z,21.00
2022-08-28T08:44:41.715Z,20.90
2022-08-28T08:47:15.225Z,21.10
2022-08-28T08:49:52.397Z,21.10
2022-08-28T08:52:36.123Z,21.10
2022-08-28T08:55:24.271Z,21.00
2022-08-28T08:57:58.399Z,20.80
2022-08-28T09:00:26.994Z,20.80
2022-08-28T09:03:01.621Z,20.80
2022-08-28T09:05:45.345Z,21.10
2022-08-28T09:08:39.662Z,21.30
2022-08-28T09:11:21.532Z,21.30
2022-08-28T09:13:59.612Z,21.30
2022-08-28T09:16:31.908Z,21.50
2022-08-28T09:19:01.403Z,21.60
2022-08-28T09:23:57.137Z,21.70
2022-08-28T09:26:26.789Z,21.80
2022-08-28T09:29:05.213Z,21.90
2022-08-28T09:31:37.358Z,22.00
2022-08-28T09:34:38.599Z,22.10
2022-08-28T09:37:09.603Z,21.80
2022-08-28T09:39:48.103Z,21.80
2022-08-28T09:42:38.508Z,21.90
2022-08-28T09:45:15.010Z,22.10
2022-08-28T09:47:48.836Z,22.40
2022-08-28T09:50:27.528Z,22.50
2022-08-28T09:52:58.187Z,22.30
2022-08-28T09:55:38.243Z,22.50
2022-08-28T09:58:07.221Z,22.50
2022-08-28T10:00:38.587Z,22.40
2022-08-28T10:03:15.537Z,22.50
2022-08-28T10:05:51.283Z,22.50
2022-08-28T10:08:33.873Z,22.60
2022-08-28T10:11:13.322Z,22.40
2022-08-28T10:13:49.629Z,22.20
2022-08-28T10:16:33.047Z,22.40
2022-08-28T10:19:10.556Z,22.50
2022-08-28T10:21:46.046Z,22.80
2022-08-28T10:24:27.919Z,22.90
2022-08-28T10:27:08.513Z,23.20
2022-08-28T10:29:49.562Z,23.00
2022-08-28T10:32:29.599Z,23.10
2022-08-28T10:35:07.379Z,22.90
2022-08-28T10:37:46.502Z,22.90
2022-08-28T10:40:18.943Z,23.10
2022-08-28T10:42:55.148Z,22.90
2022-08-28T10:45:25.501Z,22.60
2022-08-28T10:47:58.014Z,22.40
2022-08-28T10:50:29.205Z,22.60
2022-08-28T10:53:01.218Z,22.80
2022-08-28T10:55:36.918Z,22.90
2022-08-28T10:58:24.966Z,23.10
2022-08-28T11:00:55.869Z,23.60
2022-08-28T11:03:34.893Z,23.90
2022-08-28T11:06:08.695Z,24.00
2022-08-28T11:08:38.246Z,23.70
2022-08-28T11:11:13.167Z,23.80
2022-08-28T11:13:48.580Z,23.90
2022-08-28T11:16:23.159Z,24.00
2022-08-28T11:19:23.972Z,23.90
2022-08-28T11:21:55.558Z,24.00
2022-08-28T11:24:43.617Z,23.90
2022-08-28T11:27:21.518Z,24.10
2022-08-28T11:30:20.240Z,24.30
2022-08-28T11:33:34.689Z,24.30
2022-08-28T11:36:03.492Z,24.60
2022-08-28T11:39:05.561Z,23.90
2022-08-28T11:41:36.405Z,24.00
2022-08-28T11:44:25.483Z,24.20
2022-08-28T11:46:57.690Z,24.10
2022-08-28T11:49:45.918Z,24.40
2022-08-28T11:52:37.392Z,24.70
2022-08-28T11:55:14.917Z,25.00
2022-08-28T11:57:55.304Z,25.30
2022-08-28T12:00:29.075Z,25.10
2022-08-28T12:03:15.448Z,25.40
2022-08-28T12:05:49.717Z,25.70
2022-08-28T12:09:10.610Z,25.20
2022-08-28T12:12:03.664Z,25.20
2022-08-28T12:15:10.021Z,25.30
2022-08-28T12:17:47.901Z,25.20
2022-08-28T12:20:29.455Z,25.10
2022-08-28T12:23:00.409Z,25.50
2022-08-28T12:25:34.064Z,25.90
2022-08-28T12:28:17.946Z,25.90
2022-08-28T12:30:54.547Z,25.70
2022-08-28T12:33:31.882Z,25.80
2022-08-28T12:36:05.521Z,25.70
2022-08-28T12:38:35.366Z,25.90
2022-08-28T12:41:03.807Z,25.70
2022-08-28T12:43:35.768Z,25.90
2022-08-28T12:46:19.615Z,26.20
2022-08-28T12:48:54.207Z,26.10
2022-08-28T12:51:26.305Z,26.40
2022-08-28T12:53:56.813Z,26.60
2022-08-28T12:56:29.947Z,26.60
2022-08-28T12:59:18.192Z,26.20
2022-08-28T13:01:46.290Z,26.40
2022-08-28T13:04:28.176Z,26.00
2022-08-28T13:07:04.387Z,26.00
2022-08-28T13:09:32.549Z,25.90
2022-08-28T13:12:00.624Z,25.80
2022-08-28T13:14:43.967Z,25.70
2022-08-28T13:17:12.693Z,25.70
2022-08-28T13:19:40.945Z,25.80
2022-08-28T13:22:35.260Z,25.50
2022-08-28T13:25:05.328Z,25.70
2022-08-28T13:27:34.474Z,25.70
2022-08-28T13:30:08.546Z,25.70
2022-08-28T13:32:39.058Z,25.80
2022-08-28T13:35:27.893Z,25.70
2022-08-28T13:37:59.395Z,25.60
2022-08-28T13:43:19.446Z,25.90
2022-08-28T13:45:49.234Z,26.10
2022-08-28T13:48:19.617Z,26.30
2022-08-28T13:50:51.373Z,26.00
2022-08-28T13:53:22.038Z,26.20
2022-08-28T13:55:52.403Z,26.10
2022-08-28T13:58:20.556Z,26.10
2022-08-28T14:00:50.942Z,26.20
2022-08-28T14:03:38.177Z,26.40
2022-08-28T14:06:09.172Z,26.00
2022-08-28T14:08:39.709Z,26.40
2022-08-28T14:11:08.312Z,26.30
2022-08-28T14:13:46.973Z,26.20
2022-08-28T14:16:24.289Z,26.20
2022-08-28T14:18:52.741Z,26.20
2022-08-28T14:21:21.171Z,26.40
2022-08-28T14:23:50.727Z,26.10
2022-08-28T14:26:19.401Z,25.90
2022-08-28T14:28:47.567Z,26.00
2022-08-28T14:31:15.655Z,25.90
2022-08-28T14:33:45.368Z,25.90
2022-08-28T14:36:16.791Z,25.80
2022-08-28T14:38:44.794Z,26.10
2022-08-28T14:41:15.020Z,26.10
2022-08-28T14:43:43.172Z,25.80
2022-08-28T14:46:16.291Z,25.70
2022-08-28T14:48:44.421Z,25.60
2022-08-28T14:51:12.564Z,25.50
2022-08-28T14:53:40.685Z,25.60
2022-08-28T14:56:09.760Z,25.80
2022-08-28T14:58:39.289Z,25.70
2022-08-28T15:01:08.010Z,25.90
2022-08-28T15:03:36.787Z,25.70
2022-08-28T15:06:07.827Z,25.70
2022-08-28T15:08:38.201Z,25.90
2022-08-28T15:11:07.759Z,26.00
2022-08-28T15:13:35.870Z,26.50
2022-08-28T15:16:10.569Z,26.50
2022-08-28T15:18:45.809Z,26.30
2022-08-28T15:21:18.120Z,26.30
2022-08-28T15:23:46.237Z,26.20
2022-08-28T15:26:15.552Z,26.50
2022-08-28T15:32:03.741Z,26.90
2022-08-28T15:34:31.806Z,26.60
2022-08-28T15:37:00.352Z,26.50
2022-08-28T15:39:47.548Z,26.20
2022-08-28T15:42:16.408Z,26.20
2022-08-28T15:44:44.823Z,26.30
2022-08-28T15:47:14.874Z,26.20
2022-08-28T15:49:48.962Z,26.00
2022-08-28T15:52:19.310Z,26.00
2022-08-28T15:54:47.792Z,25.90
2022-08-28T15:57:15.891Z,25.80
2022-08-28T15:59:48.566Z,25.70
2022-08-28T16:02:20.847Z,25.90
2022-08-28T16:04:49.527Z,25.70
2022-08-28T16:07:18.456Z,25.70
2022-08-28T16:09:46.595Z,25.90
2022-08-28T16:12:14.961Z,26.30
2022-08-28T16:14:43.073Z,26.40
2022-08-28T16:17:11.651Z,26.30
2022-08-28T16:19:42.213Z,26.10
2022-08-28T16:22:11.505Z,26.00
2022-08-28T16:24:39.530Z,25.90
2022-08-28T16:29:55.500Z,25.90
2022-08-28T16:32:25.041Z,26.00
2022-08-28T16:34:54.550Z,25.90
2022-08-28T16:35:49.384Z,25.90
2022-08-28T16:37:22.883Z,25.90
2022-08-28T16:39:56.021Z,25.90
2022-08-28T16:42:24.450Z,25.80
2022-08-28T16:44:56.897Z,25.70
2022-08-28T16:47:25.077Z,26.50
2022-08-28T16:49:57.361Z,26.60
2022-08-28T16:52:27.054Z,26.30
2022-08-28T16:54:55.182Z,26.10
2022-08-28T16:57:23.820Z,25.90
2022-08-28T16:59:53.184Z,25.80
2022-08-28T17:02:26.636Z,26.10
2022-08-28T17:05:00.364Z,26.20
2022-08-28T17:07:28.783Z,26.40
2022-08-28T17:09:56.798Z,26.30
2022-08-28T17:12:24.839Z,26.40
2022-08-28T17:14:52.883Z,26.10
2022-08-28T17:17:21.036Z,25.90
2022-08-28T17:19:48.996Z,26.30
2022-08-28T17:22:32.514Z,26.30
2022-08-28T17:25:02.393Z,26.50
2022-08-28T17:27:32.289Z,27.00
2022-08-28T17:30:01.395Z,27.20
2022-08-28T17:32:29.772Z,27.40
2022-08-28T17:34:57.900Z,26.40
2022-08-28T17:37:27.528Z,25.70
2022-08-28T17:39:55.908Z,25.30
2022-08-28T17:42:23.949Z,25.10
2022-08-28T17:44:52.148Z,24.90
2022-08-28T17:47:27.449Z,24.70
2022-08-28T17:49:59.771Z,24.60
2022-08-28T17:52:30.041Z,24.60
2022-08-28T17:54:58.558Z,24.40
2022-08-28T17:57:30.288Z,24.30
2022-08-28T17:59:58.935Z,24.10
2022-08-28T18:02:27.494Z,24.00
2022-08-28T18:04:56.177Z,24.00
2022-08-28T18:07:24.225Z,23.90
2022-08-28T18:09:53.679Z,23.90
2022-08-28T18:12:21.709Z,23.80
2022-08-28T18:14:49.864Z,23.70
2022-08-28T18:17:17.951Z,23.60
2022-08-28T18:19:45.965Z,23.60
2022-08-28T18:22:15.782Z,23.50
2022-08-28T18:24:44.560Z,23.20
2022-08-28T18:27:14.049Z,23.20
2022-08-28T18:29:42.011Z,23.10
2022-08-28T18:32:10.022Z,23.10
2022-08-28T18:34:38.038Z,23.10
2022-08-28T18:37:06.603Z,23.00
2022-08-28T18:39:44.214Z,22.80
2022-08-28T18:42:21.659Z,22.60
2022-08-28T18:44:51.619Z,22.40
2022-08-28T18:47:19.784Z,22.30
2022-08-28T18:49:47.933Z,22.30
2022-08-28T18:52:15.937Z,22.40
2022-08-28T18:54:43.984Z,22.20
2022-08-28T18:57:15.409Z,22.10
2022-08-28T18:59:43.741Z,22.00
2022-08-28T19:02:13.066Z,22.00
2022-08-28T19:04:42.661Z,21.80
2022-08-28T19:07:10.664Z,21.70
2022-08-28T19:09:38.792Z,21.60
2022-08-28T19:12:07.403Z,21.60
2022-08-28T19:14:41.047Z,21.40
2022-08-28T19:17:09.165Z,21.10
2022-08-28T19:19:37.212Z,20.90
2022-08-28T19:22:05.520Z,21.20
2022-08-28T19:24:34.661Z,21.10
2022-08-28T19:27:03.464Z,21.10
2022-08-28T19:29:31.476Z,21.10
2022-08-28T19:32:01.445Z,21.20
2022-08-28T19:34:29.795Z,21.30
2022-08-28T19:36:57.956Z,21.10
2022-08-28T19:39:26.471Z,20.90
2022-08-28T19:41:55.099Z,20.70
2022-08-28T19:44:23.211Z,20.70
2022-08-28T19:46:51.183Z,20.70
2022-08-28T19:49:20.828Z,20.70
2022-08-28T19:51:49.102Z,20.60
2022-08-28T19:54:17.048Z,20.50
2022-08-28T19:56:45.026Z,20.50
2022-08-28T19:59:13.038Z,20.20
2022-08-28T20:01:43.830Z,20.20
2022-08-28T20:04:17.493Z,19.90
2022-08-28T20:06:48.168Z,20.10
2022-08-28T20:09:17.252Z,19.90
2022-08-28T20:11:46.858Z,20.00
2022-08-28T20:14:16.708Z,20.10
2022-08-28T20:16:48.294Z,20.00
2022-08-28T20:19:16.377Z,19.90
2022-08-28T20:21:49.035Z,20.00
2022-08-28T20:24:20.301Z,19.90
2022-08-28T20:26:48.962Z,20.00
2022-08-28T20:29:17.280Z,19.80
2022-08-28T20:31:48.318Z,19.70
2022-08-28T20:34:17.870Z,19.70
2022-08-28T20:36:47.340Z,19.70
2022-08-28T20:39:15.623Z,19.50
2022-08-28T20:41:45.524Z,19.40
2022-08-28T20:44:15.835Z,19.30
2022-08-28T20:46:44.101Z,19.20
2022-08-28T20:49:21.707Z,19.20
2022-08-28T20:51:56.322Z,19.20
2022-08-28T20:54:27.381Z,19.20
2022-08-28T20:56:57.312Z,19.00
2022-08-28T20:59:27.249Z,19.00
2022-08-28T21:02:02.382Z,18.90
2022-08-28T21:04:30.532Z,18.90
2022-08-28T21:06:59.871Z,18.80
2022-08-28T21:10:04.607Z,18.70
2022-08-28T21:12:16.610Z,18.70
2022-08-28T21:14:45.483Z,18.70
2022-08-28T21:17:20.879Z,18.70
2022-08-28T21:19:58.516Z,18.70
2022-08-28T21:22:27.876Z,18.70
2022-08-28T21:24:55.926Z,18.60
2022-08-28T21:27:23.960Z,18.60
2022-08-28T21:29:51.949Z,18.60
2022-08-28T21:32:20.116Z,18.60
2022-08-28T21:34:48.151Z,18.50
2022-08-28T21:37:16.516Z,18.40
2022-08-28T21:39:45.945Z,18.40
2022-08-28T21:42:14.034Z,18.40
2022-08-28T21:44:51.647Z,18.50
2022-08-28T21:47:21.364Z,18.40
2022-08-28T21:49:50.443Z,18.40
2022-08-28T21:52:18.818Z,18.40
2022-08-28T21:54:48.414Z,18.60
2022-08-28T21:57:17.646Z,18.50
2022-08-28T21:59:45.682Z,18.50
2022-08-28T22:02:13.856Z,18.30
2022-08-28T22:04:42.114Z,18.20
2022-08-28T22:07:11.961Z,18.20
2022-08-28T22:09:40.394Z,18.30
2022-08-28T22:12:10.048Z,18.40
2022-08-28T22:14:38.742Z,18.40
2022-08-28T22:17:11.530Z,18.10
2022-08-28T22:19:40.365Z,18.10
2022-08-28T22:22:25.854Z,18.10
2022-08-28T22:24:53.964Z,18.20
2022-08-28T22:27:23.843Z,18.00
2022-08-28T22:29:51.912Z,18.00
2022-08-28T22:32:25.345Z,18.00
2022-08-28T22:34:54.108Z,18.00
2022-08-28T22:37:22.964Z,18.00
2022-08-28T22:39:51.016Z,18.00
2022-08-28T22:42:23.025Z,18.10
2022-08-28T22:44:52.408Z,18.00
2022-08-28T22:47:22.360Z,17.90
2022-08-28T22:49:52.150Z,17.70
2022-08-28T22:52:20.188Z,17.70
2022-08-28T22:54:53.059Z,17.60
2022-08-28T22:57:21.627Z,17.60
2022-08-28T22:59:50.118Z,17.60
2022-08-28T23:02:20.411Z,17.60
2022-08-28T23:04:52.344Z,17.60
2022-08-28T23:07:20.553Z,17.70
2022-08-28T23:09:48.608Z,17.50
2022-08-28T23:12:16.608Z,17.40
2022-08-28T23:14:48.400Z,17.20
2022-08-28T23:17:17.423Z,17.40
2022-08-28T23:19:48.196Z,17.40
2022-08-28T23:22:17.445Z,17.20
2022-08-28T23:24:47.258Z,17.30
2022-08-28T23:27:35.205Z,17.20
2022-08-28T23:30:03.724Z,17.20
2022-08-28T23:32:32.012Z,17.20
2022-08-28T23:35:07.053Z,17.20
2022-08-28T23:37:36.340Z,17.20
2022-08-28T23:40:09.704Z,17.10
2022-08-28T23:42:40.280Z,17.10
2022-08-28T23:45:09.473Z,17.10
2022-08-28T23:47:40.609Z,17.10
2022-08-28T23:50:13.805Z,17.10
2022-08-28T23:52:43.039Z,17.10
2022-08-28T23:55:13.271Z,17.10
2022-08-28T23:57:44.014Z,17.00
